createdAt,value
2023-04-16T00:00:52.532Z,104732.66
2023-04-16T00:03:19.134Z,104196.63
2023-04-16T00:05:45.789Z,104196.63
2023-04-16T00:08:12.397Z,104196.63
2023-04-16T00:10:38.697Z,103928.63
2023-04-16T00:13:05.091Z,103660.66
2023-04-16T00:15:31.438Z,102856.84
2023-04-16T00:17:57.804Z,102856.84
2023-04-16T00:20:24.159Z,101785.34
2023-04-16T00:22:51.031Z,101785.34
2023-04-16T00:25:17.312Z,101517.53
2023-04-16T00:27:43.649Z,100714.16
2023-04-16T00:30:10.090Z,102321.06
2023-04-16T00:32:36.435Z,102053.22
2023-04-16T00:35:02.778Z,101785.34
2023-04-16T00:37:29.118Z,101517.53
2023-04-16T00:39:55.462Z,101249.72
2023-04-16T00:42:21.756Z,101785.34
2023-04-16T00:44:48.061Z,101785.34
2023-04-16T00:47:14.372Z,101785.34
2023-04-16T00:49:40.672Z,102053.22
2023-04-16T00:52:06.959Z,102321.06
2023-04-16T00:54:33.286Z,101785.34
2023-04-16T00:56:59.684Z,102053.22
2023-04-16T00:59:26.464Z,102053.22
2023-04-16T01:01:53.037Z,102053.22
2023-04-16T01:04:19.613Z,102321.06
2023-04-16T01:06:45.986Z,102588.97
2023-04-16T01:09:12.280Z,103392.72
2023-04-16T01:11:39.674Z,103392.72
2023-04-16T01:14:06.061Z,102588.97
2023-04-16T01:16:32.360Z,102856.84
2023-04-16T01:18:58.637Z,102856.84
2023-04-16T01:21:24.958Z,102856.84
2023-04-16T01:23:51.361Z,103392.72
2023-04-16T01:26:17.660Z,103124.78
2023-04-16T01:28:44.008Z,103392.72
2023-04-16T01:31:10.392Z,103660.66
2023-04-16T01:33:36.815Z,103660.66
2023-04-16T01:36:03.241Z,103660.66
2023-04-16T01:38:29.527Z,103928.63
2023-04-16T01:40:57.132Z,103928.63
2023-04-16T01:43:23.466Z,103928.63
2023-04-16T01:45:49.807Z,103928.63
2023-04-16T01:48:16.111Z,104732.66
2023-04-16T01:50:42.409Z,104196.63
2023-04-16T01:53:09.598Z,103928.63
2023-04-16T01:55:36.147Z,104196.63
2023-04-16T01:58:02.761Z,103928.63
2023-04-16T02:00:29.089Z,104196.63
2023-04-16T02:02:55.636Z,103928.63
2023-04-16T02:05:22.131Z,104196.63
2023-04-16T02:07:48.399Z,104196.63
2023-04-16T02:10:14.715Z,103928.63
2023-04-16T02:12:41.048Z,103660.66
2023-04-16T02:15:07.688Z,103928.63
2023-04-16T02:17:34.044Z,104464.63
2023-04-16T02:20:02.829Z,105268.75
2023-04-16T02:22:29.285Z,105268.75
2023-04-16T02:24:55.803Z,105536.84
2023-04-16T02:27:24.640Z,105536.84
2023-04-16T02:29:51.008Z,105536.84
2023-04-16T02:32:17.470Z,106073.06
2023-04-16T02:34:43.974Z,106073.06
2023-04-16T02:37:10.258Z,106073.06
2023-04-16T02:39:36.729Z,106341.19
2023-04-16T02:42:03.099Z,106609.34
2023-04-16T02:44:29.415Z,106341.19
2023-04-16T02:46:55.792Z,106609.34
2023-04-16T02:49:22.314Z,106877.50
2023-04-16T02:51:48.610Z,106877.50
2023-04-16T02:54:14.932Z,107413.88
2023-04-16T02:56:41.474Z,107682.09
2023-04-16T02:59:08.180Z,107950.34
2023-04-16T03:01:34.658Z,108218.59
2023-04-16T03:04:01.038Z,108755.16
2023-04-16T03:06:27.492Z,108755.16
2023-04-16T03:09:09.614Z,108755.16
2023-04-16T03:11:36.124Z,109023.47
2023-04-16T03:14:02.538Z,109023.47
2023-04-16T03:16:28.847Z,109023.47
2023-04-16T03:18:55.138Z,109291.78
2023-04-16T03:21:21.440Z,109560.13
2023-04-16T03:23:47.828Z,109828.50
2023-04-16T03:26:14.149Z,110096.88
2023-04-16T03:28:40.576Z,110365.28
2023-04-16T03:31:06.946Z,110365.28
2023-04-16T03:33:33.288Z,110633.69
2023-04-16T03:35:59.664Z,110633.69
2023-04-16T03:38:31.277Z,110902.13
2023-04-16T03:40:57.603Z,110902.13
2023-04-16T03:43:23.932Z,110902.13
2023-04-16T03:45:53.411Z,111170.56
2023-04-16T03:48:19.742Z,111170.56
2023-04-16T03:50:47.479Z,111170.56
2023-04-16T03:53:13.970Z,111170.56
2023-04-16T03:55:40.843Z,111170.56
2023-04-16T03:58:07.128Z,111170.56
2023-04-16T04:00:33.448Z,111439.03
2023-04-16T04:03:00.099Z,111439.03
2023-04-16T04:05:26.571Z,111170.56
2023-04-16T04:07:52.950Z,110365.28
2023-04-16T04:10:19.257Z,110633.69
2023-04-16T04:12:45.730Z,110096.88
2023-04-16T04:15:12.182Z,109828.50
2023-04-16T04:17:38.688Z,110365.28
2023-04-16T04:20:05.332Z,109560.13
2023-04-16T04:22:31.765Z,109560.13
2023-04-16T04:24:58.129Z,109560.13
2023-04-16T04:27:24.492Z,110096.88
2023-04-16T04:29:50.879Z,110096.88
2023-04-16T04:32:17.227Z,110096.88
2023-04-16T04:34:43.546Z,110096.88
2023-04-16T04:37:09.847Z,109560.13
2023-04-16T04:39:36.153Z,109828.50
2023-04-16T04:42:03.202Z,109828.50
2023-04-16T04:44:29.536Z,110365.28
2023-04-16T04:46:56.252Z,110633.69
2023-04-16T04:49:22.548Z,111170.56
2023-04-16T04:51:48.940Z,111170.56
2023-04-16T04:54:15.629Z,111170.56
2023-04-16T04:56:47.269Z,111170.56
2023-04-16T04:59:13.609Z,111707.53
2023-04-16T05:01:39.935Z,111439.03
2023-04-16T05:04:06.457Z,111439.03
2023-04-16T05:06:32.832Z,110902.13
2023-04-16T05:08:59.191Z,110633.69
2023-04-16T05:11:25.747Z,110365.28
2023-04-16T05:13:52.129Z,109560.13
2023-04-16T05:16:18.570Z,108755.16
2023-04-16T05:18:44.893Z,108486.88
2023-04-16T05:21:11.196Z,108218.59
2023-04-16T05:23:37.502Z,107682.09
2023-04-16T05:26:03.792Z,106609.34
2023-04-16T05:28:30.410Z,105536.84
2023-04-16T05:30:56.712Z,104732.66
2023-04-16T05:33:23.078Z,103660.66
2023-04-16T05:35:49.498Z,103124.78
2023-04-16T05:38:15.808Z,102321.06
2023-04-16T05:40:42.141Z,101517.53
2023-04-16T05:43:08.453Z,100981.91
2023-04-16T05:45:39.533Z,99107.84
2023-04-16T05:48:06.144Z,98304.94
2023-04-16T05:50:32.470Z,98037.34
2023-04-16T05:52:58.846Z,98037.34
2023-04-16T05:55:25.500Z,97234.66
2023-04-16T05:57:51.893Z,96967.13
2023-04-16T06:00:18.259Z,96164.63
2023-04-16T06:02:44.853Z,96164.63
2023-04-16T06:05:11.380Z,96967.13
2023-04-16T06:07:37.669Z,96699.59
2023-04-16T06:10:04.056Z,96164.63
2023-04-16T06:12:30.969Z,95897.19
2023-04-16T06:14:57.262Z,95094.91
2023-04-16T06:17:23.679Z,95629.72
2023-04-16T06:19:50.099Z,94025.47
2023-04-16T06:22:16.388Z,93223.56
2023-04-16T06:24:42.694Z,92154.59
2023-04-16T06:27:09.012Z,91887.41
2023-04-16T06:29:41.248Z,91887.41
2023-04-16T06:32:08.292Z,91353.06
2023-04-16T06:34:34.604Z,91085.94
2023-04-16T06:37:03.458Z,90818.81
2023-04-16T06:39:30.009Z,90284.63
2023-04-16T06:41:56.358Z,90017.53
2023-04-16T06:44:22.655Z,89750.50
2023-04-16T06:46:49.057Z,88148.56
2023-04-16T06:49:15.781Z,87347.81
2023-04-16T06:51:42.101Z,86814.09
2023-04-16T06:54:08.395Z,85213.31
2023-04-16T06:56:36.507Z,83346.53
2023-04-16T06:59:03.333Z,82546.75
2023-04-16T07:01:31.187Z,82013.66
2023-04-16T07:03:58.157Z,80947.69
2023-04-16T07:06:24.619Z,79082.91
2023-04-16T07:08:50.899Z,79082.91
2023-04-16T07:11:17.781Z,77218.97
2023-04-16T07:13:44.152Z,74557.75
2023-04-16T07:16:10.553Z,73227.78
2023-04-16T07:18:36.953Z,72041.59
2023-04-16T07:21:03.753Z,70585.81
2023-04-16T07:23:30.234Z,69244.72
2023-04-16T07:25:56.663Z,64981.56
2023-04-16T07:28:24.427Z,64600.06
2023-04-16T07:30:50.832Z,63835.13
2023-04-16T07:33:17.210Z,62110.91
2023-04-16T07:35:43.781Z,60911.44
2023-04-16T07:38:10.235Z,60700.16
2023-04-16T07:40:36.700Z,60267.31
2023-04-16T07:43:03.014Z,61137.22
2023-04-16T07:45:29.350Z,60865.84
2023-04-16T07:47:56.512Z,61242.84
2023-04-16T07:50:22.935Z,60213.47
2023-04-16T07:52:49.288Z,60437.13
2023-04-16T07:55:15.722Z,59877.97
2023-04-16T07:57:42.051Z,59364.47
2023-04-16T08:00:08.834Z,59343.75
2023-04-16T08:02:35.440Z,59507.34
2023-04-16T08:05:02.035Z,59087.03
2023-04-16T08:07:28.407Z,59080.81
2023-04-16T08:09:54.924Z,58654.34
2023-04-16T08:12:21.598Z,59103.59
2023-04-16T08:14:48.052Z,59105.66
2023-04-16T08:17:14.597Z,58085.09
2023-04-16T08:19:41.688Z,57640.13
2023-04-16T08:22:08.028Z,56839.25
2023-04-16T08:24:34.383Z,56394.41
2023-04-16T08:27:11.505Z,55705.50
2023-04-16T08:29:43.958Z,55707.59
2023-04-16T08:32:10.295Z,55498.66
2023-04-16T08:34:37.065Z,55610.34
2023-04-16T08:37:03.498Z,55618.63
2023-04-16T08:39:29.805Z,55633.09
2023-04-16T08:41:56.148Z,55405.56
2023-04-16T08:44:26.763Z,55167.72
2023-04-16T08:46:57.206Z,54648.59
2023-04-16T08:49:23.594Z,54636.19
2023-04-16T08:51:51.719Z,54636.19
2023-04-16T08:54:25.403Z,54884.38
2023-04-16T08:56:51.706Z,54971.22
2023-04-16T08:59:18.068Z,54911.25
2023-04-16T09:01:45.468Z,55010.53
2023-04-16T09:04:12.034Z,55182.19
2023-04-16T09:06:38.691Z,55047.75
2023-04-16T09:09:04.984Z,54919.53
2023-04-16T09:11:31.281Z,54884.38
2023-04-16T09:13:57.607Z,54758.22
2023-04-16T09:16:24.674Z,54698.22
2023-04-16T09:18:51.904Z,54621.72
2023-04-16T09:21:18.265Z,54452.16
2023-04-16T09:23:44.829Z,54249.50
2023-04-16T09:26:11.343Z,54266.03
2023-04-16T09:28:44.026Z,54284.66
2023-04-16T09:31:11.166Z,54117.16
2023-04-16T09:33:37.697Z,53978.63
2023-04-16T09:36:04.139Z,53935.19
2023-04-16T09:38:46.006Z,53807.00
2023-04-16T09:41:12.479Z,53804.94
2023-04-16T09:43:38.944Z,53761.50
2023-04-16T09:46:08.214Z,53691.22
2023-04-16T09:48:35.011Z,53701.56
2023-04-16T09:51:02.734Z,53620.91
2023-04-16T09:53:31.064Z,53556.81
2023-04-16T09:56:01.600Z,53573.38
2023-04-16T09:58:28.798Z,53480.34
2023-04-16T10:01:04.922Z,53554.75
2023-04-16T10:03:40.341Z,53517.53
2023-04-16T10:06:18.231Z,53534.09
2023-04-16T10:08:49.673Z,53529.94
2023-04-16T10:11:16.969Z,53540.28
2023-04-16T10:13:45.908Z,53503.06
2023-04-16T10:16:12.480Z,53490.66
2023-04-16T10:18:40.621Z,53529.94
2023-04-16T10:21:07.122Z,53552.69
2023-04-16T10:23:33.791Z,53544.44
2023-04-16T10:26:00.811Z,53560.97
2023-04-16T10:28:30.540Z,53558.91
2023-04-16T10:30:57.511Z,53552.69
2023-04-16T10:33:25.465Z,53492.75
2023-04-16T10:36:05.023Z,53441.06
2023-04-16T10:38:33.674Z,53488.59
2023-04-16T10:41:00.965Z,53457.59
2023-04-16T10:43:28.441Z,53492.75
2023-04-16T10:45:56.558Z,53492.75
2023-04-16T10:48:27.468Z,53467.94
2023-04-16T10:50:58.022Z,53501.00
2023-04-16T10:53:26.520Z,53529.94
2023-04-16T10:56:25.889Z,53511.34
2023-04-16T10:58:56.334Z,53521.69
2023-04-16T11:01:32.373Z,53532.03
2023-04-16T11:04:05.146Z,53552.69
2023-04-16T11:06:39.545Z,53579.56
2023-04-16T11:09:05.937Z,53581.63
2023-04-16T11:11:37.024Z,53596.13
2023-04-16T11:14:06.073Z,53540.28
2023-04-16T11:16:43.037Z,53515.47
2023-04-16T11:19:19.306Z,53505.16
2023-04-16T11:21:45.966Z,53470.00
2023-04-16T11:24:12.333Z,53498.94
2023-04-16T11:26:41.565Z,53507.22
2023-04-16T11:29:18.805Z,53546.50
2023-04-16T11:32:11.760Z,53509.28
2023-04-16T11:34:46.524Z,53523.75
2023-04-16T11:37:13.266Z,53515.47
2023-04-16T11:39:49.945Z,53538.22
2023-04-16T11:42:22.901Z,53536.16
2023-04-16T11:44:53.480Z,53569.22
2023-04-16T11:47:22.615Z,53540.28
2023-04-16T11:49:51.100Z,53573.38
2023-04-16T11:52:30.591Z,53585.78
2023-04-16T11:54:58.518Z,53573.38
2023-04-16T11:57:32.849Z,53587.84
2023-04-16T12:00:01.378Z,53569.22
2023-04-16T12:02:38.431Z,53558.91
2023-04-16T12:05:12.519Z,53598.19
2023-04-16T12:07:46.329Z,53587.84
2023-04-16T12:10:14.858Z,53602.31
2023-04-16T12:12:42.732Z,53627.13
2023-04-16T12:15:09.564Z,53627.13
2023-04-16T12:17:38.711Z,53618.84
2023-04-16T12:20:12.560Z,53620.91
2023-04-16T12:22:39.661Z,53608.50
2023-04-16T12:25:08.203Z,53598.19
2023-04-16T12:27:47.018Z,53637.47
2023-04-16T12:30:16.065Z,53633.31
2023-04-16T12:32:45.503Z,53620.91
2023-04-16T12:35:28.147Z,53676.75
2023-04-16T12:38:09.986Z,53670.53
2023-04-16T12:40:44.065Z,53678.81
2023-04-16T12:43:19.398Z,53693.28
2023-04-16T12:48:53.131Z,53680.88
2023-04-16T12:51:19.933Z,53660.19
2023-04-16T12:54:03.287Z,53666.41
2023-04-16T12:59:38.130Z,53689.16
2023-04-16T13:02:05.804Z,53701.56
2023-04-16T13:04:41.702Z,53703.63
2023-04-16T13:07:26.118Z,53687.09
2023-04-16T13:09:52.865Z,53680.88
2023-04-16T13:12:22.869Z,53682.94
2023-04-16T13:14:52.956Z,53691.22
2023-04-16T13:20:06.938Z,53664.34
2023-04-16T13:22:49.357Z,53703.63
2023-04-16T13:25:16.583Z,53693.28
2023-04-16T13:27:48.376Z,53664.34
2023-04-16T13:30:17.187Z,53678.81
2023-04-16T13:32:44.647Z,53664.34
2023-04-16T13:35:12.147Z,53670.53
2023-04-16T13:37:38.522Z,53666.41
2023-04-16T13:40:05.124Z,53654.00
2023-04-16T13:42:32.330Z,53651.94
2023-04-16T13:44:58.864Z,53645.72
2023-04-16T13:47:25.325Z,53631.25
2023-04-16T13:49:51.713Z,53651.94
2023-04-16T13:52:18.217Z,53656.06
2023-04-16T13:54:44.720Z,53656.06
2023-04-16T13:57:12.714Z,53678.81
2023-04-16T13:59:39.052Z,53662.28
2023-04-16T14:02:05.659Z,53654.00
2023-04-16T14:04:33.932Z,53660.19
2023-04-16T14:07:01.111Z,53670.53
2023-04-16T14:09:27.718Z,53656.06
2023-04-16T14:11:54.798Z,53635.41
2023-04-16T14:14:21.153Z,53614.72
2023-04-16T14:16:47.514Z,53658.13
2023-04-16T14:19:14.478Z,53647.81
2023-04-16T14:21:41.089Z,53616.78
2023-04-16T14:24:09.927Z,53629.19
2023-04-16T14:26:36.572Z,53676.75
2023-04-16T14:29:03.070Z,53616.78
2023-04-16T14:31:29.516Z,53631.25
2023-04-16T14:33:56.061Z,53643.66
2023-04-16T14:36:22.548Z,53606.44
2023-04-16T14:38:48.926Z,53647.81
2023-04-16T14:41:15.372Z,53645.72
2023-04-16T14:43:42.201Z,53645.72
2023-04-16T14:46:08.911Z,53633.31
2023-04-16T14:48:35.582Z,53614.72
2023-04-16T14:51:02.175Z,53606.44
2023-04-16T14:53:29.014Z,53612.66
2023-04-16T14:55:58.917Z,53579.56
2023-04-16T14:58:25.893Z,53608.50
2023-04-16T15:00:54.914Z,53654.00
2023-04-16T15:03:22.793Z,53637.47
2023-04-16T15:05:57.312Z,53604.38
2023-04-16T15:08:23.866Z,53625.06
2023-04-16T15:10:50.698Z,53602.31
2023-04-16T15:13:19.090Z,53629.19
2023-04-16T15:15:45.570Z,53625.06
2023-04-16T15:18:11.988Z,53606.44
2023-04-16T15:20:40.029Z,53623.00
2023-04-16T15:23:06.516Z,53629.19
2023-04-16T15:25:32.997Z,53625.06
2023-04-16T15:27:59.396Z,53606.44
2023-04-16T15:30:29.054Z,53668.47
2023-04-16T15:32:56.027Z,53639.53
2023-04-16T15:35:22.379Z,53668.47
2023-04-16T15:37:48.855Z,53637.47
2023-04-16T15:40:15.936Z,53672.59
2023-04-16T15:42:43.108Z,53637.47
2023-04-16T15:45:09.641Z,53633.31
2023-04-16T15:47:36.281Z,53625.06
2023-04-16T15:50:06.672Z,53639.53
2023-04-16T15:52:33.080Z,53637.47
2023-04-16T15:55:00.730Z,53662.28
2023-04-16T15:57:27.979Z,53641.59
2023-04-16T16:02:26.255Z,53647.81
2023-04-16T16:04:53.001Z,53654.00
2023-04-16T16:07:20.060Z,53678.81
2023-04-16T16:09:47.908Z,53658.13
2023-04-16T16:12:14.247Z,53662.28
2023-04-16T16:14:40.847Z,53662.28
2023-04-16T16:17:07.148Z,53676.75
2023-04-16T16:19:33.506Z,53666.41
2023-04-16T16:21:59.798Z,53711.91
2023-04-16T16:24:26.439Z,53782.19
2023-04-16T16:26:52.902Z,53811.13
2023-04-16T16:29:19.548Z,53941.41
2023-04-16T16:31:45.897Z,54102.69
2023-04-16T16:34:19.890Z,54266.03
2023-04-16T16:36:47.415Z,54421.13
2023-04-16T16:39:13.738Z,54417.00
2023-04-16T16:41:42.959Z,54493.50
2023-04-16T16:44:09.266Z,54553.47
2023-04-16T16:46:36.562Z,54766.47
2023-04-16T16:49:05.145Z,55014.66
2023-04-16T16:51:33.554Z,55403.50
2023-04-16T16:53:59.890Z,55779.97
2023-04-16T16:56:26.292Z,56382.00
2023-04-16T16:58:52.600Z,56996.53
2023-04-16T17:01:19.077Z,57507.66
2023-04-16T17:03:45.628Z,58035.44
2023-04-16T17:06:12.087Z,58488.75
2023-04-16T17:08:38.516Z,59277.50
2023-04-16T17:11:04.869Z,60010.50
2023-04-16T17:13:32.648Z,60323.22
2023-04-16T17:15:59.088Z,60140.97
2023-04-16T17:18:25.383Z,60706.38
2023-04-16T17:20:51.735Z,61408.56
2023-04-16T17:23:18.030Z,61708.97
2023-04-16T17:25:44.564Z,62173.06
2023-04-16T17:28:10.885Z,62819.56
2023-04-16T17:30:37.565Z,63412.28
2023-04-16T17:33:04.645Z,64204.09
2023-04-16T17:35:31.145Z,64962.88
2023-04-16T17:37:57.607Z,64732.75
2023-04-16T17:40:23.991Z,66256.91
2023-04-16T17:42:51.257Z,66792.06
2023-04-16T17:45:17.579Z,68107.44
2023-04-16T17:47:46.885Z,69392.09
2023-04-16T17:50:13.216Z,71507.81
2023-04-16T17:52:39.552Z,72592.06
2023-04-16T17:55:06.251Z,74279.25
2023-04-16T17:57:32.576Z,76420.41
2023-04-16T17:59:58.907Z,78017.69
2023-04-16T18:02:25.516Z,78550.25
2023-04-16T18:04:52.110Z,77485.19
2023-04-16T18:07:19.274Z,78283.97
2023-04-16T18:09:45.641Z,79349.25
2023-04-16T18:12:11.934Z,80947.69
2023-04-16T18:14:40.464Z,82546.75
2023-04-16T18:17:06.894Z,83346.53
2023-04-16T18:19:33.277Z,81747.16
2023-04-16T18:21:59.613Z,80947.69
2023-04-16T18:24:25.917Z,81480.63
2023-04-16T18:29:19.075Z,81747.16
2023-04-16T18:31:45.735Z,80947.69
2023-04-16T18:34:12.573Z,82546.75
2023-04-16T18:36:39.070Z,82013.66
2023-04-16T18:39:07.369Z,81214.16
2023-04-16T18:41:33.710Z,81480.63
2023-04-16T18:44:00.032Z,82280.22
2023-04-16T18:46:27.198Z,82280.22
2023-04-16T18:48:53.757Z,80947.69
2023-04-16T18:51:20.203Z,80681.25
2023-04-16T18:53:46.576Z,80681.25
2023-04-16T18:56:13.046Z,76952.78
2023-04-16T18:58:39.514Z,76154.28
2023-04-16T19:01:10.819Z,75089.84
2023-04-16T19:03:37.772Z,75355.94
2023-04-16T19:06:04.419Z,73620.50
2023-04-16T19:08:30.834Z,71997.97
2023-04-16T19:10:57.145Z,71433.03
2023-04-16T19:13:23.644Z,71487.03
2023-04-16T19:15:50.042Z,71599.19
2023-04-16T19:18:16.410Z,71491.19
2023-04-16T19:20:42.728Z,69767.81
2023-04-16T19:23:09.195Z,69888.22
2023-04-16T19:25:36.421Z,69844.63
2023-04-16T19:28:03.668Z,71368.66
2023-04-16T19:30:32.561Z,71237.84
2023-04-16T19:32:58.994Z,71406.03
2023-04-16T19:35:25.655Z,71113.22
2023-04-16T19:37:51.966Z,70598.25
2023-04-16T19:40:18.291Z,69176.22
2023-04-16T19:42:45.272Z,69072.44
2023-04-16T19:45:11.599Z,68275.50
2023-04-16T19:47:38.031Z,67848.06
2023-04-16T19:50:04.423Z,67063.81
2023-04-16T19:52:30.704Z,67439.31
2023-04-16T19:54:57.070Z,67065.88
2023-04-16T19:57:23.518Z,67964.25
2023-04-16T19:59:53.015Z,69196.97
2023-04-16T20:02:21.305Z,69954.66
2023-04-16T20:04:48.432Z,70805.91
2023-04-16T20:07:14.747Z,71100.78
2023-04-16T20:09:41.105Z,71050.94
2023-04-16T20:12:07.420Z,71792.34
2023-04-16T20:14:33.715Z,73475.03
2023-04-16T20:17:00.069Z,73410.63
2023-04-16T20:19:31.366Z,74557.75
2023-04-16T20:21:57.668Z,75089.84
2023-04-16T20:24:24.147Z,76154.28
2023-04-16T20:26:50.558Z,75888.13
2023-04-16T20:29:16.892Z,76420.41
2023-04-16T20:31:44.363Z,78017.69
2023-04-16T20:34:10.646Z,79349.25
2023-04-16T20:36:36.935Z,80148.38
2023-04-16T20:39:06.931Z,79615.59
2023-04-16T20:41:33.882Z,81214.16
2023-04-16T20:44:05.049Z,81747.16
2023-04-16T20:46:36.129Z,82813.34
2023-04-16T20:49:02.529Z,83079.94
2023-04-16T20:51:28.823Z,83079.94
2023-04-16T20:53:55.160Z,82813.34
2023-04-16T20:56:21.592Z,82813.34
2023-04-16T20:58:47.906Z,82813.34
2023-04-16T21:01:14.250Z,83346.53
2023-04-16T21:03:40.864Z,83613.16
2023-04-16T21:06:07.246Z,85213.31
2023-04-16T21:08:33.615Z,84679.84
2023-04-16T21:11:00.017Z,84146.47
2023-04-16T21:13:26.353Z,83079.94
2023-04-16T21:15:52.836Z,82813.34
2023-04-16T21:18:19.270Z,82013.66
2023-04-16T21:20:45.897Z,82813.34
2023-04-16T21:23:12.239Z,83346.53
2023-04-16T21:25:38.585Z,83079.94
2023-04-16T21:28:08.582Z,83613.16
2023-04-16T21:30:34.962Z,83879.81
2023-04-16T21:33:01.303Z,84146.47
2023-04-16T21:35:27.731Z,83879.81
2023-04-16T21:37:54.135Z,84413.16
2023-04-16T21:40:20.736Z,84946.56
2023-04-16T21:42:47.061Z,84946.56
2023-04-16T21:45:14.515Z,85480.06
2023-04-16T21:47:41.065Z,85746.84
2023-04-16T21:50:07.738Z,85746.84
2023-04-16T21:52:40.058Z,86814.09
2023-04-16T21:55:08.089Z,87881.63
2023-04-16T21:57:34.401Z,88682.47
2023-04-16T22:00:00.909Z,89216.44
2023-04-16T22:02:27.385Z,90017.53
2023-04-16T22:04:53.909Z,90017.53
2023-04-16T22:07:20.652Z,90017.53
2023-04-16T22:09:47.066Z,90551.69
2023-04-16T22:12:13.803Z,91353.06
2023-04-16T22:14:46.112Z,91353.06
2023-04-16T22:17:17.065Z,91620.22
2023-04-16T22:19:44.554Z,92421.81
2023-04-16T22:22:10.848Z,92956.28
2023-04-16T22:24:37.172Z,93490.84
2023-04-16T22:27:03.617Z,93490.84
2023-04-16T22:29:29.926Z,93490.84
2023-04-16T22:32:00.608Z,93758.13
2023-04-16T22:34:27.017Z,94025.47
2023-04-16T22:36:53.411Z,94560.16
2023-04-16T22:39:19.704Z,94292.78
2023-04-16T22:41:46.139Z,94025.47
2023-04-16T22:44:12.431Z,94025.47
2023-04-16T22:46:38.834Z,94292.78
2023-04-16T22:49:05.266Z,94560.16
2023-04-16T22:51:31.620Z,95094.91
2023-04-16T22:53:57.948Z,95362.31
2023-04-16T22:56:28.654Z,95629.72
2023-04-16T22:58:55.016Z,95629.72
2023-04-16T23:01:21.551Z,95629.72
2023-04-16T23:03:48.033Z,95362.31
2023-04-16T23:06:14.421Z,95362.31
2023-04-16T23:08:40.754Z,94827.50
2023-04-16T23:11:07.081Z,94827.50
2023-04-16T23:13:33.391Z,94827.50
2023-04-16T23:15:59.754Z,95362.31
2023-04-16T23:18:26.159Z,94827.50
2023-04-16T23:20:53.012Z,95094.91
2023-04-16T23:23:19.468Z,95094.91
2023-04-16T23:25:46.022Z,94292.78
2023-04-16T23:28:12.323Z,94292.78
2023-04-16T23:30:38.666Z,94560.16
2023-04-16T23:33:05.081Z,95094.91
2023-04-16T23:35:31.426Z,94560.16
2023-04-16T23:37:57.717Z,95094.91
2023-04-16T23:40:24.110Z,95897.19
2023-04-16T23:42:50.552Z,95629.72
2023-04-16T23:45:16.940Z,95629.72
2023-04-16T23:47:43.409Z,95629.72
2023-04-16T23:50:09.899Z,95629.72
2023-04-16T23:52:36.276Z,95629.72
2023-04-16T23:55:02.612Z,95629.72
2023-04-16T23:57:28.926Z,96432.09
2023-04-16T23:59:55.273Z,96164.63
